createdAt,value
2019-05-25T00:00:09.528Z,2.50
2019-05-25T00:02:38.625Z,2.40
2019-05-25T00:05:08.444Z,2.20
2019-05-25T00:07:38.425Z,2.13
2019-05-25T00:10:08.508Z,2.33
2019-05-25T00:12:38.481Z,3.30
2019-05-25T00:15:07.632Z,2.27
2019-05-25T00:17:36.864Z,2.50
2019-05-25T00:20:06.224Z,2.10
2019-05-25T00:22:35.445Z,2.30
2019-05-25T00:25:04.612Z,2.30
2019-05-25T00:27:35.539Z,2.43
2019-05-25T00:30:05.078Z,2.40
2019-05-25T00:32:34.248Z,2.33
2019-05-25T00:35:03.650Z,2.30
2019-05-25T00:37:32.958Z,2.50
2019-05-25T00:40:02.081Z,2.17
2019-05-25T00:42:32.118Z,2.60
2019-05-25T00:45:01.485Z,2.30
2019-05-25T00:47:30.893Z,2.40
2019-05-25T00:50:00.204Z,2.47
2019-05-25T00:52:29.820Z,2.67
2019-05-25T00:54:58.924Z,2.33
2019-05-25T00:57:28.609Z,2.42
2019-05-25T00:59:58.065Z,2.47
2019-05-25T01:02:27.404Z,2.58
2019-05-25T01:04:56.508Z,2.80
2019-05-25T01:07:25.620Z,2.80
2019-05-25T01:09:54.781Z,2.53
2019-05-25T01:12:23.877Z,2.40
2019-05-25T01:14:57.497Z,2.57
2019-05-25T01:17:26.561Z,2.60
2019-05-25T01:19:55.639Z,2.60
2019-05-25T01:22:25.001Z,2.93
2019-05-25T01:24:54.060Z,2.50
2019-05-25T01:27:23.207Z,2.83
2019-05-25T01:29:53.744Z,2.67
2019-05-25T01:32:22.937Z,2.70
2019-05-25T01:34:52.073Z,2.50
2019-05-25T01:37:21.217Z,3.23
2019-05-25T01:39:50.295Z,2.77
2019-05-25T01:42:20.584Z,2.83
2019-05-25T01:44:49.925Z,2.47
2019-05-25T01:47:19.329Z,2.83
2019-05-25T01:49:48.593Z,2.97
2019-05-25T01:52:17.712Z,2.33
2019-05-25T01:54:58.795Z,3.30
2019-05-25T01:57:18.165Z,2.80
2019-05-25T01:59:47.555Z,3.00
2019-05-25T02:02:16.660Z,2.90
2019-05-25T02:04:47.426Z,2.90
2019-05-25T02:07:17.090Z,2.80
2019-05-25T02:09:46.195Z,3.20
2019-05-25T02:12:16.850Z,3.70
2019-05-25T02:14:45.924Z,3.17
2019-05-25T02:17:15.334Z,3.35
2019-05-25T02:19:45.468Z,3.80
2019-05-25T02:22:14.542Z,2.90
2019-05-25T02:24:43.959Z,3.37
2019-05-25T02:27:13.464Z,3.60
2019-05-25T02:29:42.511Z,3.20
2019-05-25T02:32:11.636Z,3.23
2019-05-25T02:34:40.717Z,3.30
2019-05-25T02:37:10.053Z,3.80
2019-05-25T02:39:39.181Z,2.85
2019-05-25T02:42:08.292Z,3.77
2019-05-25T02:44:38.314Z,3.40
2019-05-25T02:47:09.087Z,3.87
2019-05-25T02:49:38.501Z,3.93
2019-05-25T02:52:07.908Z,3.77
2019-05-25T02:54:37.249Z,3.47
2019-05-25T02:57:06.712Z,4.20
2019-05-25T02:59:36.521Z,3.67
2019-05-25T03:02:05.938Z,3.57
2019-05-25T03:04:35.264Z,4.20
2019-05-25T03:07:05.030Z,3.97
2019-05-25T03:09:36.193Z,3.33
2019-05-25T03:12:09.301Z,4.47
2019-05-25T03:14:39.139Z,3.80
2019-05-25T03:17:08.481Z,4.17
2019-05-25T03:19:37.579Z,4.43
2019-05-25T03:22:06.616Z,3.97
2019-05-25T03:24:35.719Z,4.50
2019-05-25T03:27:06.952Z,4.90
2019-05-25T03:29:36.334Z,4.62
2019-05-25T03:32:07.682Z,4.60
2019-05-25T03:34:36.741Z,4.17
2019-05-25T03:37:06.214Z,5.20
2019-05-25T03:39:35.324Z,4.73
2019-05-25T03:42:04.783Z,4.70
2019-05-25T03:44:37.870Z,5.47
2019-05-25T03:47:07.500Z,5.23
2019-05-25T03:49:36.949Z,5.70
2019-05-25T03:52:06.086Z,6.37
2019-05-25T03:54:35.147Z,6.33
2019-05-25T03:57:05.696Z,6.27
2019-05-25T03:59:34.756Z,6.10
2019-05-25T04:02:03.883Z,6.30
2019-05-25T04:04:32.975Z,6.50
2019-05-25T04:07:02.034Z,6.70
2019-05-25T04:09:31.120Z,6.63
2019-05-25T04:12:00.493Z,6.80
2019-05-25T04:14:29.889Z,7.73
2019-05-25T04:16:59.032Z,8.03
2019-05-25T04:19:29.828Z,7.50
2019-05-25T04:21:59.181Z,8.43
2019-05-25T04:24:28.224Z,9.10
2019-05-25T04:29:32.854Z,9.90
2019-05-25T04:32:02.533Z,9.57
2019-05-25T04:34:32.285Z,9.63
2019-05-25T04:37:01.972Z,9.10
2019-05-25T04:39:31.830Z,9.90
2019-05-25T04:42:01.048Z,9.53
2019-05-25T04:44:30.105Z,9.37
2019-05-25T04:47:00.962Z,9.87
2019-05-25T04:49:30.704Z,9.20
2019-05-25T04:52:00.154Z,9.57
2019-05-25T04:54:29.321Z,8.90
2019-05-25T04:56:58.488Z,9.27
2019-05-25T04:59:28.253Z,8.97
2019-05-25T05:02:00.789Z,9.23
2019-05-25T05:04:30.832Z,9.30
2019-05-25T05:06:59.933Z,9.33
2019-05-25T05:09:30.133Z,9.47
2019-05-25T05:12:00.101Z,9.00
2019-05-25T05:14:29.187Z,9.90
2019-05-25T05:16:59.925Z,9.07
2019-05-25T05:19:28.991Z,9.50
2019-05-25T05:21:58.060Z,9.10
2019-05-25T05:24:27.167Z,9.30
2019-05-25T05:26:57.108Z,8.70
2019-05-25T05:29:26.644Z,8.73
2019-05-25T05:31:56.516Z,8.63
2019-05-25T05:34:25.648Z,8.90
2019-05-25T05:36:56.509Z,9.35
2019-05-25T05:39:27.009Z,9.20
2019-05-25T05:41:56.268Z,9.43
2019-05-25T05:44:28.408Z,9.57
2019-05-25T05:46:59.909Z,8.07
2019-05-25T05:49:30.366Z,8.77
2019-05-25T05:52:02.327Z,8.73
2019-05-25T05:54:32.793Z,8.27
2019-05-25T05:57:11.563Z,8.10
2019-05-25T05:59:32.988Z,7.33
2019-05-25T06:02:03.045Z,7.53
2019-05-25T06:04:32.459Z,6.90
2019-05-25T06:07:01.524Z,7.27
2019-05-25T06:09:30.605Z,7.10
2019-05-25T06:12:00.228Z,6.60
2019-05-25T06:14:30.479Z,6.70
2019-05-25T06:16:59.722Z,6.28
2019-05-25T06:19:29.482Z,6.33
2019-05-25T06:21:58.594Z,6.17
2019-05-25T06:24:27.698Z,5.70
2019-05-25T06:26:57.244Z,6.23
2019-05-25T06:29:28.016Z,6.03
2019-05-25T06:31:57.085Z,5.80
2019-05-25T06:34:26.153Z,6.70
2019-05-25T06:36:56.188Z,6.03
2019-05-25T06:39:25.700Z,6.40
2019-05-25T06:41:54.900Z,5.90
2019-05-25T06:44:24.260Z,6.47
2019-05-25T06:46:53.530Z,6.03
2019-05-25T06:49:22.592Z,6.33
2019-05-25T06:51:51.997Z,5.27
2019-05-25T06:54:21.626Z,5.53
2019-05-25T06:56:50.976Z,5.20
2019-05-25T06:59:20.096Z,6.60
2019-05-25T07:04:24.436Z,5.73
2019-05-25T07:06:53.593Z,5.67
2019-05-25T07:09:23.217Z,5.13
2019-05-25T07:12:06.513Z,5.80
2019-05-25T07:14:35.659Z,5.70
2019-05-25T07:17:07.477Z,5.83
2019-05-25T07:19:36.629Z,5.93
2019-05-25T07:22:05.788Z,6.17
2019-05-25T07:24:34.888Z,7.83
2019-05-25T07:27:03.960Z,8.27
2019-05-25T07:29:34.457Z,7.53
2019-05-25T07:32:03.896Z,7.87
2019-05-25T07:34:33.028Z,8.60
2019-05-25T07:37:02.889Z,10.20
2019-05-25T07:39:34.108Z,10.80
2019-05-25T07:42:03.542Z,10.77
2019-05-25T07:44:33.284Z,10.27
2019-05-25T07:47:02.439Z,10.93
2019-05-25T07:49:32.566Z,11.07
2019-05-25T07:52:02.846Z,11.20
2019-05-25T07:54:32.192Z,10.97
2019-05-25T07:57:01.537Z,15.07
2019-05-25T07:59:30.864Z,14.57
2019-05-25T08:01:59.964Z,15.60
2019-05-25T08:04:34.266Z,15.97
2019-05-25T08:07:03.452Z,16.50
2019-05-25T08:09:32.604Z,18.70
2019-05-25T08:12:01.996Z,19.33
2019-05-25T08:14:31.234Z,21.07
2019-05-25T08:17:01.588Z,21.60
2019-05-25T08:19:30.726Z,20.47
2019-05-25T08:22:00.212Z,20.73
2019-05-25T08:24:29.271Z,20.27
2019-05-25T08:26:58.842Z,20.23
2019-05-25T08:29:28.290Z,20.25
2019-05-25T08:31:57.836Z,22.33
2019-05-25T08:34:27.045Z,19.33
2019-05-25T08:36:56.524Z,18.77
2019-05-25T08:39:26.242Z,19.37
2019-05-25T08:41:55.310Z,19.60
2019-05-25T08:44:24.548Z,18.48
2019-05-25T08:46:55.497Z,17.90
2019-05-25T08:49:26.304Z,17.73
2019-05-25T08:51:55.808Z,16.93
2019-05-25T08:54:24.924Z,17.27
2019-05-25T08:56:54.128Z,17.63
2019-05-25T08:59:23.648Z,17.17
2019-05-25T09:01:53.129Z,17.70
2019-05-25T09:04:25.521Z,17.93
2019-05-25T09:06:53.604Z,17.13
2019-05-25T09:09:22.705Z,16.63
2019-05-25T09:11:51.842Z,15.95
2019-05-25T09:14:21.276Z,15.63
2019-05-25T09:16:51.638Z,15.63
2019-05-25T09:19:20.704Z,16.17
2019-05-25T09:22:02.015Z,14.70
2019-05-25T09:24:22.520Z,14.83
2019-05-25T09:26:51.939Z,13.93
2019-05-25T09:29:21.672Z,14.67
2019-05-25T09:31:50.949Z,14.87
2019-05-25T09:34:20.134Z,13.63
2019-05-25T09:36:49.472Z,12.97
2019-05-25T09:39:19.285Z,13.10
2019-05-25T09:41:48.517Z,13.33
2019-05-25T09:44:17.909Z,12.57
2019-05-25T09:46:47.209Z,12.17
2019-05-25T09:49:16.737Z,10.87
2019-05-25T09:51:48.492Z,12.05
2019-05-25T09:54:17.053Z,10.13
2019-05-25T09:56:46.441Z,10.28
2019-05-25T09:59:20.101Z,10.27
2019-05-25T10:01:46.358Z,10.40
2019-05-25T10:04:15.630Z,11.33
2019-05-25T10:06:45.504Z,10.43
2019-05-25T10:09:15.395Z,10.30
2019-05-25T10:11:44.572Z,10.80
2019-05-25T10:14:13.702Z,10.47
2019-05-25T10:16:43.063Z,10.10
2019-05-25T10:19:13.836Z,10.60
2019-05-25T10:21:43.040Z,9.20
2019-05-25T10:24:12.630Z,8.67
2019-05-25T10:26:44.186Z,9.15
2019-05-25T10:29:13.400Z,8.43
2019-05-25T10:31:43.268Z,9.10
2019-05-25T10:34:12.527Z,8.57
2019-05-25T10:36:42.009Z,8.83
2019-05-25T10:39:11.531Z,8.87
2019-05-25T10:41:40.653Z,10.30
2019-05-25T10:44:09.733Z,9.50
2019-05-25T10:46:39.493Z,10.43
2019-05-25T10:49:11.726Z,10.20
2019-05-25T10:51:40.274Z,8.63
2019-05-25T10:54:09.693Z,8.93
2019-05-25T10:56:38.758Z,8.07
2019-05-25T10:59:08.281Z,8.47
2019-05-25T11:01:37.957Z,8.50
2019-05-25T11:04:07.260Z,9.43
2019-05-25T11:06:36.684Z,8.67
2019-05-25T11:09:07.149Z,7.73
2019-05-25T11:11:36.478Z,8.03
2019-05-25T11:14:05.715Z,9.07
2019-05-25T11:16:34.860Z,8.87
2019-05-25T11:19:03.916Z,7.83
2019-05-25T11:21:36.757Z,8.00
2019-05-25T11:24:06.108Z,8.20
2019-05-25T11:26:35.829Z,7.20
2019-05-25T11:29:05.020Z,7.50
2019-05-25T11:31:34.265Z,8.17
2019-05-25T11:34:03.729Z,8.80
2019-05-25T11:36:32.800Z,8.97
2019-05-25T11:39:02.146Z,8.33
2019-05-25T11:41:33.474Z,7.97
2019-05-25T11:44:02.818Z,8.53
2019-05-25T11:46:32.193Z,7.60
2019-05-25T11:49:01.677Z,7.40
2019-05-25T11:51:31.020Z,7.20
2019-05-25T11:54:00.145Z,7.30
2019-05-25T11:56:30.087Z,7.30
2019-05-25T11:58:59.816Z,7.00
2019-05-25T12:01:29.547Z,7.23
2019-05-25T12:03:58.614Z,7.30
2019-05-25T12:06:28.628Z,8.20
2019-05-25T12:08:58.445Z,9.17
2019-05-25T12:11:27.512Z,8.63
2019-05-25T12:13:56.780Z,7.80
2019-05-25T12:16:25.824Z,7.93
2019-05-25T12:18:55.165Z,7.57
2019-05-25T12:21:24.240Z,7.90
2019-05-25T12:23:53.405Z,8.30
2019-05-25T12:26:22.461Z,7.80
2019-05-25T12:28:51.628Z,8.10
2019-05-25T12:31:20.769Z,7.78
2019-05-25T12:33:50.417Z,7.70
2019-05-25T12:36:34.097Z,8.27
2019-05-25T12:39:17.864Z,8.13
2019-05-25T12:41:46.936Z,7.63
2019-05-25T12:44:16.081Z,7.40
2019-05-25T12:46:45.211Z,7.13
2019-05-25T12:49:14.609Z,6.80
2019-05-25T12:51:44.077Z,6.10
2019-05-25T12:54:13.124Z,6.13
2019-05-25T12:56:42.228Z,5.50
2019-05-25T12:59:11.802Z,5.93
2019-05-25T13:01:40.957Z,5.43
2019-05-25T13:04:11.390Z,5.87
2019-05-25T13:06:42.560Z,6.10
2019-05-25T13:09:11.923Z,6.90
2019-05-25T13:11:41.264Z,6.27
2019-05-25T13:14:14.535Z,7.00
2019-05-25T13:16:41.172Z,7.13
2019-05-25T13:19:10.412Z,7.87
2019-05-25T13:21:39.894Z,6.77
2019-05-25T13:24:09.285Z,6.60
2019-05-25T13:26:39.400Z,5.60
2019-05-25T13:29:08.548Z,4.63
2019-05-25T13:31:39.205Z,5.30
2019-05-25T13:34:08.364Z,3.40
2019-05-25T13:36:37.760Z,3.40
2019-05-25T13:39:10.749Z,3.53
2019-05-25T13:44:14.346Z,3.23
2019-05-25T13:46:44.940Z,3.03
2019-05-25T13:49:14.054Z,3.60
2019-05-25T13:51:43.100Z,4.80
2019-05-25T13:54:12.474Z,3.07
2019-05-25T13:56:41.531Z,3.30
2019-05-25T13:59:10.580Z,2.87
2019-05-25T14:01:39.932Z,3.08
2019-05-25T14:04:09.040Z,3.10
2019-05-25T14:06:38.145Z,2.87
2019-05-25T14:09:07.744Z,3.43
2019-05-25T14:11:37.144Z,4.03
2019-05-25T14:14:06.220Z,3.10
2019-05-25T14:16:35.828Z,3.20
2019-05-25T14:19:05.601Z,3.13
2019-05-25T14:21:34.684Z,2.33
2019-05-25T14:24:03.794Z,2.50
2019-05-25T14:26:32.904Z,3.80
2019-05-25T14:29:02.255Z,3.67
2019-05-25T14:31:54.576Z,3.20
2019-05-25T14:34:23.947Z,3.00
2019-05-25T14:36:53.340Z,3.47
2019-05-25T14:39:24.093Z,3.17
2019-05-25T14:41:53.202Z,3.23
2019-05-25T14:44:22.358Z,2.67
2019-05-25T14:46:52.089Z,2.80
2019-05-25T14:49:21.343Z,3.07
2019-05-25T14:51:50.456Z,2.50
2019-05-25T14:54:20.772Z,2.87
2019-05-25T14:56:50.153Z,3.23
2019-05-25T14:59:19.208Z,2.53
2019-05-25T15:02:01.491Z,2.30
2019-05-25T15:04:19.140Z,2.43
2019-05-25T15:06:48.225Z,2.37
2019-05-25T15:09:17.556Z,2.33
2019-05-25T15:11:47.448Z,2.40
2019-05-25T15:14:16.493Z,2.50
2019-05-25T15:16:45.591Z,2.33
2019-05-25T15:19:14.976Z,3.80
2019-05-25T15:21:45.109Z,3.73
2019-05-25T15:24:17.310Z,2.70
2019-05-25T15:26:46.672Z,2.13
2019-05-25T15:29:15.993Z,2.97
2019-05-25T15:31:45.106Z,2.80
2019-05-25T15:34:14.468Z,2.47
2019-05-25T15:36:43.568Z,2.30
2019-05-25T15:39:12.648Z,1.90
2019-05-25T15:41:41.722Z,2.80
2019-05-25T15:44:10.840Z,3.07
2019-05-25T15:46:40.309Z,2.67
2019-05-25T15:49:09.720Z,2.30
2019-05-25T15:51:39.176Z,1.83
2019-05-25T15:54:10.666Z,2.20
2019-05-25T15:56:39.924Z,1.80
2019-05-25T15:59:09.378Z,1.50
2019-05-25T16:01:38.520Z,1.50
2019-05-25T16:04:07.622Z,1.40
2019-05-25T16:06:36.756Z,2.20
2019-05-25T16:09:07.082Z,1.80
2019-05-25T16:11:36.580Z,2.10
2019-05-25T16:14:07.747Z,2.60
2019-05-25T16:16:36.756Z,2.13
2019-05-25T16:21:40.997Z,1.97
2019-05-25T16:24:10.424Z,2.43
2019-05-25T16:26:45.836Z,2.50
2019-05-25T16:29:10.599Z,2.08
2019-05-25T16:31:41.041Z,2.00
2019-05-25T16:34:11.644Z,1.90
2019-05-25T16:39:17.563Z,2.10
2019-05-25T16:41:46.749Z,2.63
2019-05-25T16:44:16.088Z,2.67
2019-05-25T16:46:46.048Z,2.63
2019-05-25T16:49:15.464Z,2.10
2019-05-25T16:51:45.365Z,2.40
2019-05-25T16:54:14.929Z,2.37
2019-05-25T16:56:44.335Z,2.30
2019-05-25T16:59:13.376Z,2.50
2019-05-25T17:01:48.345Z,2.60
2019-05-25T17:04:19.536Z,2.83
2019-05-25T17:07:26.961Z,2.73
2019-05-25T17:10:34.477Z,3.20
2019-05-25T17:13:03.595Z,3.80
2019-05-25T17:15:33.149Z,3.70
2019-05-25T17:18:04.786Z,3.33
2019-05-25T17:20:33.493Z,3.60
2019-05-25T17:23:02.586Z,3.55
2019-05-25T17:25:33.517Z,3.05
2019-05-25T17:28:03.029Z,3.50
2019-05-25T17:30:41.264Z,3.40
2019-05-25T17:33:10.490Z,5.97
2019-05-25T17:35:39.800Z,3.40
2019-05-25T17:38:09.029Z,3.63
2019-05-25T17:40:38.329Z,4.20
2019-05-25T17:43:07.817Z,4.83
2019-05-25T17:45:36.880Z,4.20
2019-05-25T17:48:09.716Z,4.12
2019-05-25T17:50:38.764Z,3.70
2019-05-25T17:53:08.193Z,3.33
2019-05-25T17:55:37.560Z,3.00
2019-05-25T17:58:06.649Z,2.53
2019-05-25T18:00:49.108Z,2.67
2019-05-25T18:03:18.291Z,3.35
2019-05-25T18:05:47.764Z,3.17
2019-05-25T18:08:17.229Z,2.70
2019-05-25T18:10:53.465Z,2.80
2019-05-25T18:13:18.620Z,2.57
2019-05-25T18:15:47.718Z,2.80
2019-05-25T18:18:16.764Z,2.80
2019-05-25T18:20:45.909Z,2.70
2019-05-25T18:23:15.672Z,2.55
2019-05-25T18:25:45.068Z,2.50
2019-05-25T18:28:15.123Z,2.43
2019-05-25T18:30:45.159Z,2.67
2019-05-25T18:33:14.768Z,2.77
2019-05-25T18:35:44.156Z,2.17
2019-05-25T18:38:14.538Z,2.40
2019-05-25T18:40:44.341Z,3.10
2019-05-25T18:43:13.836Z,2.57
2019-05-25T18:45:43.521Z,2.73
2019-05-25T18:48:12.977Z,2.27
2019-05-25T18:50:43.287Z,2.65
2019-05-25T18:53:12.437Z,2.83
2019-05-25T18:55:41.688Z,2.60
2019-05-25T18:58:11.100Z,2.70
2019-05-25T19:00:40.358Z,2.60
2019-05-25T19:03:09.833Z,2.63
2019-05-25T19:08:13.465Z,2.70
2019-05-25T19:13:18.741Z,3.27
2019-05-25T19:15:48.137Z,3.22
2019-05-25T19:20:51.753Z,2.53
2019-05-25T19:23:21.128Z,3.00
2019-05-25T19:25:50.227Z,3.03
2019-05-25T19:28:20.532Z,2.87
2019-05-25T19:30:50.769Z,2.80
2019-05-25T19:33:20.781Z,2.70
2019-05-25T19:35:49.924Z,2.50
2019-05-25T19:38:19.538Z,2.70
2019-05-25T19:40:48.877Z,2.60
2019-05-25T19:43:19.402Z,2.70
2019-05-25T19:45:49.310Z,2.97
2019-05-25T19:48:18.685Z,2.87
2019-05-25T19:50:48.388Z,2.70
2019-05-25T19:53:22.203Z,2.50
2019-05-25T19:55:51.950Z,3.02
2019-05-25T19:58:23.465Z,3.03
2019-05-25T20:00:52.825Z,2.70
2019-05-25T20:03:22.635Z,3.07
2019-05-25T20:05:54.080Z,2.73
2019-05-25T20:08:23.638Z,2.70
2019-05-25T20:10:55.460Z,2.90
2019-05-25T20:13:25.629Z,3.00
2019-05-25T20:15:54.785Z,2.80
2019-05-25T20:18:23.890Z,2.87
2019-05-25T20:20:53.033Z,2.90
2019-05-25T20:23:22.144Z,3.43
2019-05-25T20:25:52.316Z,3.00
2019-05-25T20:28:21.718Z,3.10
2019-05-25T20:30:50.761Z,3.30
2019-05-25T20:33:27.515Z,3.37
2019-05-25T20:35:50.913Z,3.13
2019-05-25T20:38:20.124Z,3.40
2019-05-25T20:40:49.980Z,3.40
2019-05-25T20:43:19.050Z,3.57
2019-05-25T20:45:48.982Z,3.72
2019-05-25T20:48:34.606Z,4.13
2019-05-25T20:51:03.717Z,4.30
2019-05-25T20:53:33.193Z,4.83
2019-05-25T20:56:03.418Z,4.70
2019-05-25T20:58:52.936Z,4.60
2019-05-25T21:01:22.210Z,4.20
2019-05-25T21:04:10.725Z,4.30
2019-05-25T21:06:40.045Z,4.30
2019-05-25T21:09:09.104Z,4.40
2019-05-25T21:11:38.509Z,4.85
2019-05-25T21:14:07.664Z,4.47
2019-05-25T21:16:37.217Z,4.50
2019-05-25T21:19:06.340Z,4.10
2019-05-25T21:21:35.409Z,4.17
2019-05-25T21:24:04.563Z,4.27
2019-05-25T21:26:33.688Z,4.87
2019-05-25T21:29:02.757Z,4.77
2019-05-25T21:31:31.907Z,4.43
2019-05-25T21:34:00.914Z,5.13
2019-05-25T21:36:30.348Z,5.00
2019-05-25T21:38:59.449Z,5.40
2019-05-25T21:41:28.880Z,5.77
2019-05-25T21:43:58.045Z,5.73
2019-05-25T21:46:27.522Z,5.63
2019-05-25T21:48:57.865Z,5.03
2019-05-25T21:51:26.932Z,5.90
2019-05-25T21:53:58.372Z,5.47
2019-05-25T21:56:27.475Z,5.30
2019-05-25T21:58:56.584Z,5.67
2019-05-25T22:01:26.465Z,4.97
2019-05-25T22:03:55.909Z,5.13
2019-05-25T22:09:00.454Z,4.50
2019-05-25T22:11:29.683Z,5.30
2019-05-25T22:13:58.781Z,5.60
2019-05-25T22:16:28.600Z,5.35
2019-05-25T22:18:57.956Z,4.87
2019-05-25T22:21:27.100Z,6.03
2019-05-25T22:23:56.701Z,5.22
2019-05-25T22:26:27.081Z,5.27
2019-05-25T22:28:56.490Z,5.20
2019-05-25T22:31:25.512Z,4.85
2019-05-25T22:33:59.211Z,5.70
2019-05-25T22:36:39.662Z,5.60
2019-05-25T22:38:58.060Z,5.70
2019-05-25T22:41:27.618Z,5.40
2019-05-25T22:43:56.936Z,6.03
2019-05-25T22:46:26.139Z,6.13
2019-05-25T22:48:55.599Z,6.33
2019-05-25T22:51:28.285Z,6.50
2019-05-25T22:53:58.084Z,5.97
2019-05-25T22:56:27.889Z,5.97
2019-05-25T22:58:56.944Z,5.37
2019-05-25T23:01:26.328Z,5.40
2019-05-25T23:03:55.664Z,5.27
2019-05-25T23:06:25.122Z,6.30
2019-05-25T23:08:54.238Z,6.17
2019-05-25T23:11:23.593Z,5.97
2019-05-25T23:13:52.912Z,6.10
2019-05-25T23:16:23.051Z,5.80
2019-05-25T23:18:52.264Z,5.37
2019-05-25T23:21:21.726Z,5.70
2019-05-25T23:23:50.772Z,5.80
2019-05-25T23:26:19.860Z,5.83
2019-05-25T23:28:48.953Z,6.10
2019-05-25T23:31:18.291Z,5.60
2019-05-25T23:33:48.720Z,6.07
2019-05-25T23:36:18.033Z,5.40
2019-05-25T23:38:47.644Z,6.17
2019-05-25T23:41:17.315Z,5.90
2019-05-25T23:43:46.382Z,5.40
2019-05-25T23:51:26.480Z,5.65
2019-05-25T23:53:55.839Z,5.30
2019-05-25T23:56:25.081Z,5.50
2019-05-25T23:58:54.235Z,5.70
